sensor_id;sensor_type;location;lat;lon;timestamp;P1;durP1;ratioP1;P2;durP2;ratioP2
9823;SDS011;4951;50.778;7.196;2022-10-16T00:00:48;5.43;;;3.57;;
9823;SDS011;4951;50.778;7.196;2022-10-16T00:03:15;2.50;;;2.30;;
9823;SDS011;4951;50.778;7.196;2022-10-16T00:05:43;4.03;;;3.57;;
9823;SDS011;4951;50.778;7.196;2022-10-16T00:08:11;4.73;;;3.90;;
9823;SDS011;4951;50.778;7.196;2022-10-16T00:10:41;3.70;;;3.30;;
9823;SDS011;4951;50.778;7.196;2022-10-16T00:13:08;3.70;;;2.50;;
9823;SDS011;4951;50.778;7.196;2022-10-16T00:15:35;2.87;;;2.47;;
9823;SDS011;4951;50.778;7.196;2022-10-16T00:18:04;3.77;;;2.00;;
9823;SDS011;4951;50.778;7.196;2022-10-16T00:20:33;3.10;;;1.90;;
9823;SDS011;4951;50.778;7.196;2022-10-16T00:23:02;1.70;;;1.60;;
9823;SDS011;4951;50.778;7.196;2022-10-16T00:25:30;2.40;;;1.70;;
9823;SDS011;4951;50.778;7.196;2022-10-16T00:28:00;1.97;;;1.70;;
9823;SDS011;4951;50.778;7.196;2022-10-16T00:30:27;2.47;;;1.77;;
9823;SDS011;4951;50.778;7.196;2022-10-16T00:32:55;1.97;;;1.60;;
9823;SDS011;4951;50.778;7.196;2022-10-16T00:35:22;4.07;;;1.73;;
9823;SDS011;4951;50.778;7.196;2022-10-16T00:37:49;2.30;;;1.60;;
9823;SDS011;4951;50.778;7.196;2022-10-16T00:40:16;2.07;;;1.87;;
9823;SDS011;4951;50.778;7.196;2022-10-16T00:42:44;3.07;;;1.80;;
9823;SDS011;4951;50.778;7.196;2022-10-16T00:45:12;3.60;;;2.20;;
9823;SDS011;4951;50.778;7.196;2022-10-16T00:47:40;4.40;;;2.60;;
9823;SDS011;4951;50.778;7.196;2022-10-16T00:50:12;2.43;;;2.23;;
9823;SDS011;4951;50.778;7.196;2022-10-16T00:52:48;2.60;;;2.40;;
9823;SDS011;4951;50.778;7.196;2022-10-16T00:55:18;3.00;;;2.60;;
9823;SDS011;4951;50.778;7.196;2022-10-16T00:57:45;3.23;;;2.40;;
9823;SDS011;4951;50.778;7.196;2022-10-16T01:00:15;4.37;;;2.30;;
9823;SDS011;4951;50.778;7.196;2022-10-16T01:02:51;3.63;;;2.30;;
9823;SDS011;4951;50.778;7.196;2022-10-16T01:05:19;4.07;;;2.70;;
9823;SDS011;4951;50.778;7.196;2022-10-16T01:07:49;4.27;;;2.60;;
9823;SDS011;4951;50.778;7.196;2022-10-16T01:10:25;6.43;;;3.00;;
9823;SDS011;4951;50.778;7.196;2022-10-16T01:12:58;5.33;;;2.80;;
9823;SDS011;4951;50.778;7.196;2022-10-16T01:15:29;5.67;;;2.50;;
9823;SDS011;4951;50.778;7.196;2022-10-16T01:18:00;3.37;;;2.90;;
9823;SDS011;4951;50.778;7.196;2022-10-16T01:20:33;3.90;;;2.70;;
9823;SDS011;4951;50.778;7.196;2022-10-16T01:23:07;2.87;;;2.50;;
9823;SDS011;4951;50.778;7.196;2022-10-16T01:25:49;3.10;;;2.10;;
9823;SDS011;4951;50.778;7.196;2022-10-16T01:28:34;4.10;;;2.00;;
9823;SDS011;4951;50.778;7.196;2022-10-16T01:31:05;3.47;;;2.80;;
9823;SDS011;4951;50.778;7.196;2022-10-16T01:33:36;2.80;;;2.57;;
9823;SDS011;4951;50.778;7.196;2022-10-16T01:36:07;2.30;;;2.10;;
9823;SDS011;4951;50.778;7.196;2022-10-16T01:38:40;3.77;;;2.60;;
9823;SDS011;4951;50.778;7.196;2022-10-16T01:41:10;3.03;;;2.73;;
9823;SDS011;4951;50.778;7.196;2022-10-16T01:43:43;2.50;;;2.20;;
9823;SDS011;4951;50.778;7.196;2022-10-16T01:46:15;2.53;;;2.20;;
9823;SDS011;4951;50.778;7.196;2022-10-16T01:48:45;3.40;;;2.70;;
9823;SDS011;4951;50.778;7.196;2022-10-16T01:51:13;6.57;;;3.20;;
9823;SDS011;4951;50.778;7.196;2022-10-16T01:53:43;2.83;;;2.53;;
9823;SDS011;4951;50.778;7.196;2022-10-16T01:56:16;2.47;;;1.83;;
9823;SDS011;4951;50.778;7.196;2022-10-16T01:58:48;2.27;;;2.07;;
9823;SDS011;4951;50.778;7.196;2022-10-16T02:01:19;3.63;;;2.10;;
9823;SDS011;4951;50.778;7.196;2022-10-16T02:03:48;2.87;;;2.40;;
9823;SDS011;4951;50.778;7.196;2022-10-16T02:06:18;3.83;;;2.70;;
9823;SDS011;4951;50.778;7.196;2022-10-16T02:08:46;4.67;;;3.30;;
9823;SDS011;4951;50.778;7.196;2022-10-16T02:11:13;2.70;;;2.37;;
9823;SDS011;4951;50.778;7.196;2022-10-16T02:13:41;3.33;;;2.43;;
9823;SDS011;4951;50.778;7.196;2022-10-16T02:16:13;4.27;;;2.83;;
9823;SDS011;4951;50.778;7.196;2022-10-16T02:18:41;3.83;;;2.80;;
9823;SDS011;4951;50.778;7.196;2022-10-16T02:21:11;4.23;;;2.30;;
9823;SDS011;4951;50.778;7.196;2022-10-16T02:23:45;2.70;;;2.50;;
9823;SDS011;4951;50.778;7.196;2022-10-16T02:26:19;5.33;;;3.07;;
9823;SDS011;4951;50.778;7.196;2022-10-16T02:28:53;4.57;;;2.50;;
9823;SDS011;4951;50.778;7.196;2022-10-16T02:31:26;4.20;;;2.90;;
9823;SDS011;4951;50.778;7.196;2022-10-16T02:33:56;2.90;;;2.60;;
9823;SDS011;4951;50.778;7.196;2022-10-16T02:36:26;5.30;;;2.30;;
9823;SDS011;4951;50.778;7.196;2022-10-16T02:38:53;8.30;;;2.70;;
9823;SDS011;4951;50.778;7.196;2022-10-16T02:41:21;3.73;;;3.20;;
9823;SDS011;4951;50.778;7.196;2022-10-16T02:43:49;3.80;;;3.00;;
9823;SDS011;4951;50.778;7.196;2022-10-16T02:46:16;6.00;;;2.80;;
9823;SDS011;4951;50.778;7.196;2022-10-16T02:48:45;3.97;;;2.73;;
9823;SDS011;4951;50.778;7.196;2022-10-16T02:51:13;3.70;;;2.57;;
9823;SDS011;4951;50.778;7.196;2022-10-16T02:53:40;4.17;;;2.73;;
9823;SDS011;4951;50.778;7.196;2022-10-16T02:56:07;3.13;;;2.20;;
9823;SDS011;4951;50.778;7.196;2022-10-16T02:58:34;4.60;;;2.60;;
9823;SDS011;4951;50.778;7.196;2022-10-16T03:01:01;3.93;;;2.60;;
9823;SDS011;4951;50.778;7.196;2022-10-16T03:03:28;5.30;;;3.10;;
9823;SDS011;4951;50.778;7.196;2022-10-16T03:05:57;2.97;;;1.67;;
9823;SDS011;4951;50.778;7.196;2022-10-16T03:08:25;1.60;;;1.33;;
9823;SDS011;4951;50.778;7.196;2022-10-16T03:10:52;2.70;;;1.40;;
9823;SDS011;4951;50.778;7.196;2022-10-16T03:13:19;1.37;;;1.07;;
9823;SDS011;4951;50.778;7.196;2022-10-16T03:15:46;1.07;;;1.03;;
9823;SDS011;4951;50.778;7.196;2022-10-16T03:18:14;0.93;;;0.93;;
9823;SDS011;4951;50.778;7.196;2022-10-16T03:20:42;3.60;;;1.03;;
9823;SDS011;4951;50.778;7.196;2022-10-16T03:23:10;3.03;;;1.00;;
9823;SDS011;4951;50.778;7.196;2022-10-16T03:25:38;1.20;;;1.10;;
9823;SDS011;4951;50.778;7.196;2022-10-16T03:28:05;3.97;;;1.03;;
9823;SDS011;4951;50.778;7.196;2022-10-16T03:30:32;1.73;;;1.00;;
9823;SDS011;4951;50.778;7.196;2022-10-16T03:32:59;2.80;;;1.10;;
9823;SDS011;4951;50.778;7.196;2022-10-16T03:35:26;2.63;;;1.40;;
9823;SDS011;4951;50.778;7.196;2022-10-16T03:37:53;1.20;;;1.07;;
9823;SDS011;4951;50.778;7.196;2022-10-16T03:40:23;1.17;;;1.07;;
9823;SDS011;4951;50.778;7.196;2022-10-16T03:42:50;3.37;;;1.27;;
9823;SDS011;4951;50.778;7.196;2022-10-16T03:45:17;0.90;;;0.90;;
9823;SDS011;4951;50.778;7.196;2022-10-16T03:47:44;0.90;;;0.90;;
9823;SDS011;4951;50.778;7.196;2022-10-16T03:50:11;0.93;;;0.93;;
9823;SDS011;4951;50.778;7.196;2022-10-16T03:52:38;1.20;;;1.03;;
9823;SDS011;4951;50.778;7.196;2022-10-16T03:55:05;1.73;;;1.00;;
9823;SDS011;4951;50.778;7.196;2022-10-16T03:57:34;1.90;;;1.00;;
9823;SDS011;4951;50.778;7.196;2022-10-16T04:00:02;1.63;;;1.00;;
9823;SDS011;4951;50.778;7.196;2022-10-16T04:02:37;1.20;;;1.10;;
9823;SDS011;4951;50.778;7.196;2022-10-16T04:05:05;1.40;;;1.10;;
9823;SDS011;4951;50.778;7.196;2022-10-16T04:07:32;1.60;;;1.10;;
9823;SDS011;4951;50.778;7.196;2022-10-16T04:09:59;2.27;;;1.07;;
9823;SDS011;4951;50.778;7.196;2022-10-16T04:12:27;2.10;;;0.90;;
9823;SDS011;4951;50.778;7.196;2022-10-16T04:14:55;1.00;;;1.00;;
9823;SDS011;4951;50.778;7.196;2022-10-16T04:17:22;1.20;;;1.10;;
9823;SDS011;4951;50.778;7.196;2022-10-16T04:19:50;1.83;;;1.00;;
9823;SDS011;4951;50.778;7.196;2022-10-16T04:22:17;2.40;;;1.23;;
9823;SDS011;4951;50.778;7.196;2022-10-16T04:24:44;1.63;;;1.13;;
9823;SDS011;4951;50.778;7.196;2022-10-16T04:27:11;3.90;;;1.30;;
9823;SDS011;4951;50.778;7.196;2022-10-16T04:29:38;1.20;;;1.10;;
9823;SDS011;4951;50.778;7.196;2022-10-16T04:32:06;1.03;;;0.90;;
9823;SDS011;4951;50.778;7.196;2022-10-16T04:34:34;3.17;;;1.30;;
9823;SDS011;4951;50.778;7.196;2022-10-16T04:37:03;2.80;;;1.20;;
9823;SDS011;4951;50.778;7.196;2022-10-16T04:39:30;2.53;;;1.13;;
9823;SDS011;4951;50.778;7.196;2022-10-16T04:41:57;2.20;;;1.00;;
9823;SDS011;4951;50.778;7.196;2022-10-16T04:44:24;1.27;;;1.10;;
9823;SDS011;4951;50.778;7.196;2022-10-16T04:46:51;1.13;;;1.03;;
9823;SDS011;4951;50.778;7.196;2022-10-16T04:49:20;3.33;;;1.00;;
9823;SDS011;4951;50.778;7.196;2022-10-16T04:51:47;1.83;;;1.40;;
9823;SDS011;4951;50.778;7.196;2022-10-16T04:54:14;1.20;;;1.10;;
9823;SDS011;4951;50.778;7.196;2022-10-16T04:56:41;4.83;;;1.20;;
9823;SDS011;4951;50.778;7.196;2022-10-16T04:59:12;1.20;;;1.10;;
9823;SDS011;4951;50.778;7.196;2022-10-16T05:01:40;1.17;;;1.00;;
9823;SDS011;4951;50.778;7.196;2022-10-16T05:04:07;1.20;;;1.07;;
9823;SDS011;4951;50.778;7.196;2022-10-16T05:06:36;2.70;;;1.30;;
9823;SDS011;4951;50.778;7.196;2022-10-16T05:09:04;1.30;;;1.20;;
9823;SDS011;4951;50.778;7.196;2022-10-16T05:11:31;2.57;;;1.10;;
9823;SDS011;4951;50.778;7.196;2022-10-16T05:13:59;1.27;;;1.17;;
9823;SDS011;4951;50.778;7.196;2022-10-16T05:16:27;1.53;;;1.13;;
9823;SDS011;4951;50.778;7.196;2022-10-16T05:18:54;1.87;;;1.07;;
9823;SDS011;4951;50.778;7.196;2022-10-16T05:21:21;2.63;;;1.20;;
9823;SDS011;4951;50.778;7.196;2022-10-16T05:23:50;1.30;;;1.20;;
9823;SDS011;4951;50.778;7.196;2022-10-16T05:26:19;3.27;;;1.60;;
9823;SDS011;4951;50.778;7.196;2022-10-16T05:28:46;1.23;;;1.10;;
9823;SDS011;4951;50.778;7.196;2022-10-16T05:31:13;1.43;;;1.20;;
9823;SDS011;4951;50.778;7.196;2022-10-16T05:33:40;1.60;;;1.10;;
9823;SDS011;4951;50.778;7.196;2022-10-16T05:36:10;2.53;;;1.20;;
9823;SDS011;4951;50.778;7.196;2022-10-16T05:38:38;2.93;;;1.10;;
9823;SDS011;4951;50.778;7.196;2022-10-16T05:41:06;1.40;;;1.20;;
9823;SDS011;4951;50.778;7.196;2022-10-16T05:43:34;1.20;;;1.10;;
9823;SDS011;4951;50.778;7.196;2022-10-16T05:46:01;1.23;;;1.13;;
9823;SDS011;4951;50.778;7.196;2022-10-16T05:48:30;2.00;;;1.47;;
9823;SDS011;4951;50.778;7.196;2022-10-16T05:50:58;1.97;;;1.30;;
9823;SDS011;4951;50.778;7.196;2022-10-16T05:53:26;1.57;;;1.30;;
9823;SDS011;4951;50.778;7.196;2022-10-16T05:55:54;1.40;;;1.30;;
9823;SDS011;4951;50.778;7.196;2022-10-16T05:58:23;3.40;;;1.50;;
9823;SDS011;4951;50.778;7.196;2022-10-16T06:00:55;1.70;;;1.50;;
9823;SDS011;4951;50.778;7.196;2022-10-16T06:03:23;2.30;;;1.40;;
9823;SDS011;4951;50.778;7.196;2022-10-16T06:05:51;1.87;;;1.30;;
9823;SDS011;4951;50.778;7.196;2022-10-16T06:08:19;1.90;;;1.70;;
9823;SDS011;4951;50.778;7.196;2022-10-16T06:10:48;1.70;;;1.50;;
9823;SDS011;4951;50.778;7.196;2022-10-16T06:13:27;3.50;;;1.60;;
9823;SDS011;4951;50.778;7.196;2022-10-16T06:15:56;1.50;;;1.30;;
9823;SDS011;4951;50.778;7.196;2022-10-16T06:18:24;1.40;;;1.30;;
9823;SDS011;4951;50.778;7.196;2022-10-16T06:20:52;1.97;;;1.60;;
9823;SDS011;4951;50.778;7.196;2022-10-16T06:23:19;4.10;;;1.63;;
9823;SDS011;4951;50.778;7.196;2022-10-16T06:25:46;2.27;;;1.70;;
9823;SDS011;4951;50.778;7.196;2022-10-16T06:28:14;5.23;;;1.63;;
9823;SDS011;4951;50.778;7.196;2022-10-16T06:30:43;3.33;;;1.97;;
9823;SDS011;4951;50.778;7.196;2022-10-16T06:33:10;1.93;;;1.70;;
9823;SDS011;4951;50.778;7.196;2022-10-16T06:35:38;7.87;;;2.40;;
9823;SDS011;4951;50.778;7.196;2022-10-16T06:38:05;5.80;;;2.00;;
9823;SDS011;4951;50.778;7.196;2022-10-16T06:40:32;3.13;;;1.80;;
9823;SDS011;4951;50.778;7.196;2022-10-16T06:42:59;2.73;;;1.90;;
9823;SDS011;4951;50.778;7.196;2022-10-16T06:45:27;2.00;;;1.80;;
9823;SDS011;4951;50.778;7.196;2022-10-16T06:47:55;2.90;;;2.00;;
9823;SDS011;4951;50.778;7.196;2022-10-16T06:50:22;1.90;;;1.80;;
9823;SDS011;4951;50.778;7.196;2022-10-16T06:52:49;2.00;;;1.80;;
9823;SDS011;4951;50.778;7.196;2022-10-16T06:55:16;2.53;;;1.97;;
9823;SDS011;4951;50.778;7.196;2022-10-16T06:57:43;3.70;;;1.93;;
9823;SDS011;4951;50.778;7.196;2022-10-16T07:00:13;10.47;;;2.27;;
9823;SDS011;4951;50.778;7.196;2022-10-16T07:02:41;5.57;;;1.80;;
9823;SDS011;4951;50.778;7.196;2022-10-16T07:05:09;4.40;;;2.03;;
9823;SDS011;4951;50.778;7.196;2022-10-16T07:07:36;4.07;;;2.30;;
9823;SDS011;4951;50.778;7.196;2022-10-16T07:10:03;3.67;;;2.33;;
9823;SDS011;4951;50.778;7.196;2022-10-16T07:12:31;4.67;;;2.50;;
9823;SDS011;4951;50.778;7.196;2022-10-16T07:14:58;5.17;;;3.00;;
9823;SDS011;4951;50.778;7.196;2022-10-16T07:17:25;3.80;;;2.60;;
9823;SDS011;4951;50.778;7.196;2022-10-16T07:19:52;5.47;;;2.90;;
9823;SDS011;4951;50.778;7.196;2022-10-16T07:22:21;4.43;;;2.63;;
9823;SDS011;4951;50.778;7.196;2022-10-16T07:24:48;3.10;;;2.57;;
9823;SDS011;4951;50.778;7.196;2022-10-16T07:27:16;2.10;;;2.00;;
9823;SDS011;4951;50.778;7.196;2022-10-16T07:29:43;2.33;;;2.10;;
9823;SDS011;4951;50.778;7.196;2022-10-16T07:32:11;3.87;;;2.50;;
9823;SDS011;4951;50.778;7.196;2022-10-16T07:34:38;6.30;;;2.97;;
9823;SDS011;4951;50.778;7.196;2022-10-16T07:37:05;3.20;;;2.27;;
9823;SDS011;4951;50.778;7.196;2022-10-16T07:39:33;3.80;;;2.40;;
9823;SDS011;4951;50.778;7.196;2022-10-16T07:42:00;3.23;;;2.67;;
9823;SDS011;4951;50.778;7.196;2022-10-16T07:44:27;3.80;;;2.33;;
9823;SDS011;4951;50.778;7.196;2022-10-16T07:46:54;2.77;;;1.90;;
9823;SDS011;4951;50.778;7.196;2022-10-16T07:49:21;3.80;;;2.00;;
9823;SDS011;4951;50.778;7.196;2022-10-16T07:51:48;4.67;;;2.20;;
9823;SDS011;4951;50.778;7.196;2022-10-16T07:54:15;2.87;;;2.17;;
9823;SDS011;4951;50.778;7.196;2022-10-16T07:56:44;3.73;;;2.20;;
9823;SDS011;4951;50.778;7.196;2022-10-16T07:59:11;2.00;;;1.80;;
9823;SDS011;4951;50.778;7.196;2022-10-16T08:01:38;3.87;;;2.00;;
9823;SDS011;4951;50.778;7.196;2022-10-16T08:04:07;2.10;;;1.80;;
9823;SDS011;4951;50.778;7.196;2022-10-16T08:06:35;2.83;;;1.77;;
9823;SDS011;4951;50.778;7.196;2022-10-16T08:09:04;3.03;;;1.80;;
9823;SDS011;4951;50.778;7.196;2022-10-16T08:11:31;3.60;;;1.90;;
9823;SDS011;4951;50.778;7.196;2022-10-16T08:14:00;3.87;;;1.80;;
9823;SDS011;4951;50.778;7.196;2022-10-16T08:16:28;5.53;;;2.07;;
9823;SDS011;4951;50.778;7.196;2022-10-16T08:18:55;1.93;;;1.70;;
9823;SDS011;4951;50.778;7.196;2022-10-16T08:21:22;1.63;;;1.53;;
9823;SDS011;4951;50.778;7.196;2022-10-16T08:23:50;2.53;;;1.60;;
9823;SDS011;4951;50.778;7.196;2022-10-16T08:26:17;3.20;;;1.53;;
9823;SDS011;4951;50.778;7.196;2022-10-16T08:28:45;1.73;;;1.50;;
9823;SDS011;4951;50.778;7.196;2022-10-16T08:31:17;1.87;;;1.70;;
9823;SDS011;4951;50.778;7.196;2022-10-16T08:33:44;1.90;;;1.50;;
9823;SDS011;4951;50.778;7.196;2022-10-16T08:36:12;2.60;;;1.60;;
9823;SDS011;4951;50.778;7.196;2022-10-16T08:38:40;1.60;;;1.47;;
9823;SDS011;4951;50.778;7.196;2022-10-16T08:41:17;3.37;;;1.77;;
9823;SDS011;4951;50.778;7.196;2022-10-16T08:44:09;2.90;;;1.40;;
9823;SDS011;4951;50.778;7.196;2022-10-16T08:46:51;2.27;;;1.40;;
9823;SDS011;4951;50.778;7.196;2022-10-16T08:49:29;3.67;;;1.63;;
9823;SDS011;4951;50.778;7.196;2022-10-16T08:51:57;2.20;;;1.10;;
9823;SDS011;4951;50.778;7.196;2022-10-16T08:54:28;1.97;;;1.20;;
9823;SDS011;4951;50.778;7.196;2022-10-16T08:57:01;2.23;;;1.30;;
9823;SDS011;4951;50.778;7.196;2022-10-16T08:59:35;2.30;;;1.13;;
9823;SDS011;4951;50.778;7.196;2022-10-16T09:02:08;2.93;;;1.10;;
9823;SDS011;4951;50.778;7.196;2022-10-16T09:04:53;2.57;;;1.40;;
9823;SDS011;4951;50.778;7.196;2022-10-16T09:07:31;1.53;;;1.43;;
9823;SDS011;4951;50.778;7.196;2022-10-16T09:10:11;2.93;;;1.20;;
9823;SDS011;4951;50.778;7.196;2022-10-16T09:12:51;1.37;;;1.10;;
9823;SDS011;4951;50.778;7.196;2022-10-16T09:15:24;1.73;;;1.10;;
9823;SDS011;4951;50.778;7.196;2022-10-16T09:18:00;1.50;;;1.03;;
9823;SDS011;4951;50.778;7.196;2022-10-16T09:20:42;2.97;;;1.10;;
9823;SDS011;4951;50.778;7.196;2022-10-16T09:23:16;2.07;;;1.30;;
9823;SDS011;4951;50.778;7.196;2022-10-16T09:25:45;1.10;;;1.10;;
9823;SDS011;4951;50.778;7.196;2022-10-16T09:28:15;1.23;;;1.13;;
9823;SDS011;4951;50.778;7.196;2022-10-16T09:30:42;1.20;;;1.10;;
9823;SDS011;4951;50.778;7.196;2022-10-16T09:33:12;2.77;;;1.20;;
9823;SDS011;4951;50.778;7.196;2022-10-16T09:35:40;1.80;;;1.00;;
9823;SDS011;4951;50.778;7.196;2022-10-16T09:38:20;2.60;;;1.47;;
9823;SDS011;4951;50.778;7.196;2022-10-16T09:40:48;1.53;;;1.00;;
9823;SDS011;4951;50.778;7.196;2022-10-16T09:43:19;1.83;;;0.97;;
9823;SDS011;4951;50.778;7.196;2022-10-16T09:45:59;1.80;;;1.10;;
9823;SDS011;4951;50.778;7.196;2022-10-16T09:48:31;2.33;;;1.27;;
9823;SDS011;4951;50.778;7.196;2022-10-16T09:51:04;1.40;;;1.10;;
9823;SDS011;4951;50.778;7.196;2022-10-16T09:53:40;1.63;;;1.10;;
9823;SDS011;4951;50.778;7.196;2022-10-16T09:56:09;0.80;;;0.80;;
9823;SDS011;4951;50.778;7.196;2022-10-16T09:58:41;1.20;;;0.90;;
9823;SDS011;4951;50.778;7.196;2022-10-16T10:01:12;1.27;;;0.90;;
9823;SDS011;4951;50.778;7.196;2022-10-16T10:03:42;1.80;;;1.00;;
9823;SDS011;4951;50.778;7.196;2022-10-16T10:06:21;1.23;;;1.00;;
9823;SDS011;4951;50.778;7.196;2022-10-16T10:08:54;1.73;;;0.90;;
9823;SDS011;4951;50.778;7.196;2022-10-16T10:11:40;2.60;;;0.97;;
9823;SDS011;4951;50.778;7.196;2022-10-16T10:14:23;1.63;;;0.90;;
9823;SDS011;4951;50.778;7.196;2022-10-16T10:17:02;2.33;;;0.97;;
9823;SDS011;4951;50.778;7.196;2022-10-16T10:19:39;2.17;;;0.83;;
9823;SDS011;4951;50.778;7.196;2022-10-16T10:22:18;1.57;;;0.90;;
9823;SDS011;4951;50.778;7.196;2022-10-16T10:27:49;1.63;;;1.00;;
9823;SDS011;4951;50.778;7.196;2022-10-16T10:30:36;4.97;;;1.00;;
9823;SDS011;4951;50.778;7.196;2022-10-16T10:33:19;1.43;;;0.90;;
9823;SDS011;4951;50.778;7.196;2022-10-16T10:35:56;0.80;;;0.80;;
9823;SDS011;4951;50.778;7.196;2022-10-16T10:38:31;2.27;;;1.10;;
9823;SDS011;4951;50.778;7.196;2022-10-16T10:41:09;1.77;;;0.90;;
9823;SDS011;4951;50.778;7.196;2022-10-16T10:43:55;2.30;;;1.10;;
9823;SDS011;4951;50.778;7.196;2022-10-16T10:46:31;1.50;;;0.90;;
9823;SDS011;4951;50.778;7.196;2022-10-16T10:49:05;1.52;;;1.00;;
9823;SDS011;4951;50.778;7.196;2022-10-16T10:51:44;0.80;;;0.80;;
9823;SDS011;4951;50.778;7.196;2022-10-16T10:54:22;0.80;;;0.80;;
9823;SDS011;4951;50.778;7.196;2022-10-16T10:56:56;0.90;;;0.90;;
9823;SDS011;4951;50.778;7.196;2022-10-16T11:02:26;0.98;;;0.98;;
9823;SDS011;4951;50.778;7.196;2022-10-16T11:08:04;2.30;;;1.10;;
9823;SDS011;4951;50.778;7.196;2022-10-16T11:10:40;1.80;;;1.00;;
9823;SDS011;4951;50.778;7.196;2022-10-16T11:13:16;1.80;;;0.93;;
9823;SDS011;4951;50.778;7.196;2022-10-16T11:15:50;0.70;;;0.70;;
9823;SDS011;4951;50.778;7.196;2022-10-16T11:18:21;2.50;;;1.00;;
9823;SDS011;4951;50.778;7.196;2022-10-16T11:20:53;2.25;;;1.00;;
9823;SDS011;4951;50.778;7.196;2022-10-16T11:23:26;1.00;;;0.80;;
9823;SDS011;4951;50.778;7.196;2022-10-16T11:25:59;3.03;;;1.20;;
9823;SDS011;4951;50.778;7.196;2022-10-16T11:28:32;1.13;;;1.00;;
9823;SDS011;4951;50.778;7.196;2022-10-16T11:31:03;2.50;;;1.00;;
9823;SDS011;4951;50.778;7.196;2022-10-16T11:33:37;1.33;;;1.00;;
9823;SDS011;4951;50.778;7.196;2022-10-16T11:36:09;0.80;;;0.70;;
9823;SDS011;4951;50.778;7.196;2022-10-16T11:38:45;2.15;;;1.05;;
9823;SDS011;4951;50.778;7.196;2022-10-16T11:41:22;0.90;;;0.90;;
9823;SDS011;4951;50.778;7.196;2022-10-16T11:43:58;1.10;;;0.82;;
9823;SDS011;4951;50.778;7.196;2022-10-16T11:46:43;0.80;;;0.73;;
9823;SDS011;4951;50.778;7.196;2022-10-16T11:49:15;2.00;;;0.75;;
9823;SDS011;4951;50.778;7.196;2022-10-16T11:51:48;1.95;;;0.85;;
9823;SDS011;4951;50.778;7.196;2022-10-16T11:54:26;0.88;;;0.80;;
9823;SDS011;4951;50.778;7.196;2022-10-16T11:56:59;0.98;;;0.77;;
9823;SDS011;4951;50.778;7.196;2022-10-16T11:59:36;0.90;;;0.90;;
9823;SDS011;4951;50.778;7.196;2022-10-16T12:02:17;0.80;;;0.80;;
9823;SDS011;4951;50.778;7.196;2022-10-16T12:04:58;2.63;;;1.40;;
9823;SDS011;4951;50.778;7.196;2022-10-16T12:07:41;1.02;;;0.93;;
9823;SDS011;4951;50.778;7.196;2022-10-16T12:10:21;1.23;;;0.90;;
9823;SDS011;4951;50.778;7.196;2022-10-16T12:12:50;1.83;;;1.10;;
9823;SDS011;4951;50.778;7.196;2022-10-16T12:15:19;1.10;;;1.00;;
9823;SDS011;4951;50.778;7.196;2022-10-16T12:17:49;0.85;;;0.85;;
9823;SDS011;4951;50.778;7.196;2022-10-16T12:20:22;2.28;;;1.00;;
9823;SDS011;4951;50.778;7.196;2022-10-16T12:22:53;1.02;;;0.82;;
9823;SDS011;4951;50.778;7.196;2022-10-16T12:25:23;1.45;;;0.75;;
9823;SDS011;4951;50.778;7.196;2022-10-16T12:27:54;1.50;;;0.90;;
9823;SDS011;4951;50.778;7.196;2022-10-16T12:30:23;0.82;;;0.75;;
9823;SDS011;4951;50.778;7.196;2022-10-16T12:32:53;1.15;;;0.90;;
9823;SDS011;4951;50.778;7.196;2022-10-16T12:35:22;1.50;;;0.85;;
9823;SDS011;4951;50.778;7.196;2022-10-16T12:37:51;1.08;;;0.90;;
9823;SDS011;4951;50.778;7.196;2022-10-16T12:40:28;1.63;;;0.90;;
9823;SDS011;4951;50.778;7.196;2022-10-16T12:42:58;0.70;;;0.70;;
9823;SDS011;4951;50.778;7.196;2022-10-16T12:45:27;2.25;;;0.80;;
9823;SDS011;4951;50.778;7.196;2022-10-16T12:47:57;0.90;;;0.80;;
9823;SDS011;4951;50.778;7.196;2022-10-16T12:50:26;1.33;;;0.90;;
9823;SDS011;4951;50.778;7.196;2022-10-16T12:52:59;0.80;;;0.80;;
9823;SDS011;4951;50.778;7.196;2022-10-16T12:55:31;1.05;;;0.98;;
9823;SDS011;4951;50.778;7.196;2022-10-16T12:58:12;0.88;;;0.80;;
9823;SDS011;4951;50.778;7.196;2022-10-16T13:00:50;1.48;;;0.90;;
9823;SDS011;4951;50.778;7.196;2022-10-16T13:03:29;1.35;;;0.80;;
9823;SDS011;4951;50.778;7.196;2022-10-16T13:06:23;0.90;;;0.90;;
9823;SDS011;4951;50.778;7.196;2022-10-16T13:09:02;1.15;;;0.80;;
9823;SDS011;4951;50.778;7.196;2022-10-16T13:11:50;0.80;;;0.80;;
9823;SDS011;4951;50.778;7.196;2022-10-16T13:14:40;1.02;;;0.90;;
9823;SDS011;4951;50.778;7.196;2022-10-16T13:17:26;2.63;;;1.00;;
9823;SDS011;4951;50.778;7.196;2022-10-16T13:20:03;1.65;;;0.80;;
9823;SDS011;4951;50.778;7.196;2022-10-16T13:22:45;1.80;;;1.00;;
9823;SDS011;4951;50.778;7.196;2022-10-16T13:25:25;2.10;;;0.82;;
9823;SDS011;4951;50.778;7.196;2022-10-16T13:28:01;0.80;;;0.70;;
9823;SDS011;4951;50.778;7.196;2022-10-16T13:30:30;1.80;;;0.90;;
9823;SDS011;4951;50.778;7.196;2022-10-16T13:33:03;0.93;;;0.93;;
9823;SDS011;4951;50.778;7.196;2022-10-16T13:35:34;1.20;;;1.00;;
9823;SDS011;4951;50.778;7.196;2022-10-16T13:38:03;1.05;;;0.90;;
9823;SDS011;4951;50.778;7.196;2022-10-16T13:40:47;0.82;;;0.80;;
9823;SDS011;4951;50.778;7.196;2022-10-16T13:43:18;2.25;;;0.90;;
9823;SDS011;4951;50.778;7.196;2022-10-16T13:45:53;2.35;;;0.95;;
9823;SDS011;4951;50.778;7.196;2022-10-16T13:48:21;1.95;;;0.77;;
9823;SDS011;4951;50.778;7.196;2022-10-16T13:50:57;1.85;;;0.80;;
9823;SDS011;4951;50.778;7.196;2022-10-16T13:53:25;0.80;;;0.80;;
9823;SDS011;4951;50.778;7.196;2022-10-16T13:55:53;1.33;;;0.95;;
9823;SDS011;4951;50.778;7.196;2022-10-16T13:58:21;3.97;;;1.05;;
9823;SDS011;4951;50.778;7.196;2022-10-16T14:00:53;1.08;;;0.90;;
9823;SDS011;4951;50.778;7.196;2022-10-16T14:03:21;0.85;;;0.80;;
9823;SDS011;4951;50.778;7.196;2022-10-16T14:05:49;1.27;;;0.90;;
9823;SDS011;4951;50.778;7.196;2022-10-16T14:08:18;0.95;;;0.90;;
9823;SDS011;4951;50.778;7.196;2022-10-16T14:10:47;1.65;;;0.95;;
9823;SDS011;4951;50.778;7.196;2022-10-16T14:13:17;1.65;;;0.77;;
9823;SDS011;4951;50.778;7.196;2022-10-16T14:15:48;0.90;;;0.90;;
9823;SDS011;4951;50.778;7.196;2022-10-16T14:18:18;1.70;;;1.00;;
9823;SDS011;4951;50.778;7.196;2022-10-16T14:20:48;1.85;;;0.98;;
9823;SDS011;4951;50.778;7.196;2022-10-16T14:23:20;2.60;;;1.10;;
9823;SDS011;4951;50.778;7.196;2022-10-16T14:25:49;2.22;;;1.08;;
9823;SDS011;4951;50.778;7.196;2022-10-16T14:28:18;1.10;;;1.00;;
9823;SDS011;4951;50.778;7.196;2022-10-16T14:30:51;1.20;;;1.00;;
9823;SDS011;4951;50.778;7.196;2022-10-16T14:33:21;1.13;;;1.02;;
9823;SDS011;4951;50.778;7.196;2022-10-16T14:35:59;1.30;;;1.10;;
9823;SDS011;4951;50.778;7.196;2022-10-16T14:38:28;2.15;;;0.90;;
9823;SDS011;4951;50.778;7.196;2022-10-16T14:40:56;4.40;;;1.10;;
9823;SDS011;4951;50.778;7.196;2022-10-16T14:43:27;1.80;;;0.90;;
9823;SDS011;4951;50.778;7.196;2022-10-16T14:46:00;1.67;;;1.10;;
9823;SDS011;4951;50.778;7.196;2022-10-16T14:48:30;1.40;;;1.15;;
9823;SDS011;4951;50.778;7.196;2022-10-16T14:50:57;1.08;;;0.90;;
9823;SDS011;4951;50.778;7.196;2022-10-16T14:53:24;2.03;;;1.10;;
9823;SDS011;4951;50.778;7.196;2022-10-16T14:55:51;1.42;;;1.05;;
9823;SDS011;4951;50.778;7.196;2022-10-16T14:58:20;1.00;;;0.90;;
9823;SDS011;4951;50.778;7.196;2022-10-16T15:00:50;1.65;;;0.90;;
9823;SDS011;4951;50.778;7.196;2022-10-16T15:03:18;0.90;;;0.90;;
9823;SDS011;4951;50.778;7.196;2022-10-16T15:05:45;2.65;;;0.98;;
9823;SDS011;4951;50.778;7.196;2022-10-16T15:08:13;3.03;;;0.98;;
9823;SDS011;4951;50.778;7.196;2022-10-16T15:10:40;1.35;;;0.95;;
9823;SDS011;4951;50.778;7.196;2022-10-16T15:13:11;3.20;;;1.20;;
9823;SDS011;4951;50.778;7.196;2022-10-16T15:15:40;0.93;;;0.93;;
9823;SDS011;4951;50.778;7.196;2022-10-16T15:18:09;1.35;;;0.90;;
9823;SDS011;4951;50.778;7.196;2022-10-16T15:20:38;3.53;;;1.17;;
9823;SDS011;4951;50.778;7.196;2022-10-16T15:23:06;1.27;;;1.10;;
9823;SDS011;4951;50.778;7.196;2022-10-16T15:25:41;1.30;;;1.20;;
9823;SDS011;4951;50.778;7.196;2022-10-16T15:28:10;2.30;;;1.10;;
9823;SDS011;4951;50.778;7.196;2022-10-16T15:30:39;1.45;;;1.27;;
9823;SDS011;4951;50.778;7.196;2022-10-16T15:33:09;2.55;;;0.98;;
9823;SDS011;4951;50.778;7.196;2022-10-16T15:35:40;1.83;;;0.93;;
9823;SDS011;4951;50.778;7.196;2022-10-16T15:38:09;0.80;;;0.80;;
9823;SDS011;4951;50.778;7.196;2022-10-16T15:40:38;1.23;;;1.08;;
9823;SDS011;4951;50.778;7.196;2022-10-16T15:43:05;2.67;;;1.20;;
9823;SDS011;4951;50.778;7.196;2022-10-16T15:45:33;2.53;;;1.10;;